createdAt,value
2022-11-07T00:00:17.907Z,0
2022-11-07T00:01:34.198Z,0
2022-11-07T00:02:50.477Z,0
2022-11-07T00:04:06.780Z,0
2022-11-07T00:05:23.076Z,0
2022-11-07T00:06:39.385Z,0
2022-11-07T00:07:55.651Z,0
2022-11-07T00:09:11.977Z,0
2022-11-07T00:10:28.240Z,0
2022-11-07T00:11:43.580Z,0
2022-11-07T00:12:59.861Z,0
2022-11-07T00:14:16.144Z,0
2022-11-07T00:15:32.452Z,0
2022-11-07T00:16:48.738Z,0
2022-11-07T00:18:05.017Z,0
2022-11-07T00:19:20.349Z,0
2022-11-07T00:20:36.643Z,0
2022-11-07T00:21:52.944Z,0
2022-11-07T00:23:09.228Z,0
2022-11-07T00:24:25.532Z,0
2022-11-07T00:25:41.814Z,0
2022-11-07T00:26:58.112Z,0
2022-11-07T00:28:14.391Z,0
2022-11-07T00:29:30.699Z,0
2022-11-07T00:30:46.975Z,0
2022-11-07T00:32:03.282Z,0
2022-11-07T00:33:19.574Z,0
2022-11-07T00:34:35.886Z,0
2022-11-07T00:35:51.178Z,0
2022-11-07T00:37:07.479Z,0
2022-11-07T00:38:23.752Z,0
2022-11-07T00:39:40.070Z,0
2022-11-07T00:40:56.361Z,0
2022-11-07T00:42:12.642Z,0
2022-11-07T00:43:28.953Z,0
2022-11-07T00:44:45.236Z,0
2022-11-07T00:46:01.515Z,0
2022-11-07T00:47:17.827Z,0
2022-11-07T00:48:34.111Z,0
2022-11-07T00:49:50.413Z,0
2022-11-07T00:51:06.706Z,0
2022-11-07T00:52:22.026Z,0
2022-11-07T00:53:38.305Z,0
2022-11-07T00:54:54.589Z,0
2022-11-07T00:56:10.889Z,0
2022-11-07T00:57:27.188Z,0
2022-11-07T00:58:43.472Z,0
2022-11-07T00:59:59.772Z,0
2022-11-07T01:01:16.067Z,0
2022-11-07T01:02:32.369Z,0
2022-11-07T01:03:48.652Z,0
2022-11-07T01:05:04.957Z,0
2022-11-07T01:06:21.224Z,0
2022-11-07T01:07:37.522Z,0
2022-11-07T01:08:52.849Z,0
2022-11-07T01:10:09.142Z,0
2022-11-07T01:11:25.425Z,0
2022-11-07T01:12:41.711Z,0
2022-11-07T01:13:58.021Z,0
2022-11-07T01:15:14.325Z,0
2022-11-07T01:16:30.611Z,0
2022-11-07T01:17:46.904Z,0
2022-11-07T01:19:03.197Z,0
2022-11-07T01:20:19.480Z,0
2022-11-07T01:21:35.793Z,0
2022-11-07T01:22:52.062Z,0
2022-11-07T01:24:08.376Z,0
2022-11-07T01:25:23.683Z,0
2022-11-07T01:26:39.968Z,0
2022-11-07T01:27:56.280Z,0
2022-11-07T01:29:12.560Z,0
2022-11-07T01:30:28.856Z,0
2022-11-07T01:31:45.146Z,0
2022-11-07T01:33:01.440Z,0
2022-11-07T01:34:17.728Z,0
2022-11-07T01:35:34.014Z,0
2022-11-07T01:36:50.327Z,0
2022-11-07T01:38:06.629Z,0
2022-11-07T01:39:22.906Z,0
2022-11-07T01:40:39.198Z,0
2022-11-07T01:41:54.514Z,0
2022-11-07T01:43:10.816Z,0
2022-11-07T01:44:27.086Z,0
2022-11-07T01:45:43.378Z,0
2022-11-07T01:46:59.683Z,0
2022-11-07T01:48:15.979Z,0
2022-11-07T01:49:32.281Z,0
2022-11-07T01:50:48.565Z,0
2022-11-07T01:52:04.847Z,0
2022-11-07T01:53:21.164Z,0
2022-11-07T01:54:37.446Z,0
2022-11-07T01:55:53.748Z,0
2022-11-07T01:57:10.031Z,0
2022-11-07T01:58:25.356Z,0
2022-11-07T01:59:41.649Z,0
2022-11-07T02:00:57.920Z,0
2022-11-07T02:02:14.227Z,0
2022-11-07T02:03:30.536Z,0
2022-11-07T02:04:46.819Z,0
2022-11-07T02:06:03.104Z,0
2022-11-07T02:07:19.398Z,0
2022-11-07T02:08:35.690Z,0
2022-11-07T02:09:51.990Z,0
2022-11-07T02:11:08.270Z,0
2022-11-07T02:12:24.562Z,0
2022-11-07T02:13:40.885Z,0
2022-11-07T02:14:56.183Z,0
2022-11-07T02:16:12.476Z,0
2022-11-07T02:17:28.771Z,0
2022-11-07T02:18:45.057Z,0
2022-11-07T02:20:01.359Z,0
2022-11-07T02:21:17.655Z,0
2022-11-07T02:22:33.929Z,0
2022-11-07T02:23:50.234Z,0
2022-11-07T02:25:06.521Z,0
2022-11-07T02:26:22.833Z,0
2022-11-07T02:27:39.114Z,0
2022-11-07T02:28:55.391Z,0
2022-11-07T02:30:11.705Z,0
2022-11-07T02:31:27.025Z,0
2022-11-07T02:32:43.302Z,0
2022-11-07T02:33:59.581Z,0
2022-11-07T02:35:15.891Z,0
2022-11-07T02:36:32.187Z,0
2022-11-07T02:37:48.477Z,0
2022-11-07T02:39:04.755Z,0
2022-11-07T02:40:21.072Z,0
2022-11-07T02:41:37.369Z,0
2022-11-07T02:42:53.653Z,0
2022-11-07T02:44:09.959Z,0
2022-11-07T02:45:26.226Z,0
2022-11-07T02:46:42.528Z,0
2022-11-07T02:47:57.838Z,0
2022-11-07T02:49:14.134Z,0
2022-11-07T02:50:30.429Z,0
2022-11-07T02:51:46.728Z,0
2022-11-07T02:53:03.021Z,0
2022-11-07T02:54:19.314Z,0
2022-11-07T02:55:35.598Z,0
2022-11-07T02:56:51.911Z,0
2022-11-07T02:58:08.183Z,0
2022-11-07T02:59:24.485Z,0
2022-11-07T03:00:40.767Z,0
2022-11-07T03:01:57.067Z,0
2022-11-07T03:03:13.362Z,0
2022-11-07T03:04:28.676Z,0
2022-11-07T03:05:44.965Z,0
2022-11-07T03:07:01.279Z,0
2022-11-07T03:08:17.561Z,0
2022-11-07T03:09:33.853Z,0
2022-11-07T03:10:50.133Z,0
2022-11-07T03:12:06.426Z,0
2022-11-07T03:13:22.717Z,0
2022-11-07T03:14:39.007Z,0
2022-11-07T03:15:55.308Z,0
2022-11-07T03:17:11.593Z,0
2022-11-07T03:18:27.904Z,0
2022-11-07T03:19:44.187Z,0
2022-11-07T03:20:59.512Z,0
2022-11-07T03:22:15.815Z,0
2022-11-07T03:23:32.094Z,0
2022-11-07T03:24:48.404Z,0
2022-11-07T03:26:04.692Z,0
2022-11-07T03:27:20.969Z,0
2022-11-07T03:28:37.264Z,0
2022-11-07T03:29:53.554Z,0
2022-11-07T03:31:09.857Z,0
2022-11-07T03:32:26.160Z,0
2022-11-07T03:33:42.442Z,0
2022-11-07T03:34:58.738Z,0
2022-11-07T03:36:15.016Z,0
2022-11-07T03:37:30.340Z,0
2022-11-07T03:38:46.649Z,0
2022-11-07T03:40:02.933Z,0
2022-11-07T03:41:19.222Z,0
2022-11-07T03:42:35.507Z,0
2022-11-07T03:43:51.791Z,0
2022-11-07T03:45:08.087Z,0
2022-11-07T03:46:24.384Z,0
2022-11-07T03:47:40.700Z,0
2022-11-07T03:48:56.989Z,0
2022-11-07T03:50:13.284Z,0
2022-11-07T03:51:29.576Z,0
2022-11-07T03:52:45.870Z,0
2022-11-07T03:54:01.190Z,0
2022-11-07T03:55:17.481Z,0
2022-11-07T03:56:33.743Z,0
2022-11-07T03:59:06.342Z,0
2022-11-07T04:00:22.651Z,0
2022-11-07T04:01:38.948Z,0
2022-11-07T04:02:55.243Z,0
2022-11-07T04:04:11.504Z,0
2022-11-07T04:05:27.800Z,0
2022-11-07T04:06:44.099Z,0
2022-11-07T04:08:00.388Z,0
2022-11-07T04:09:16.679Z,0
2022-11-07T04:10:31.988Z,0
2022-11-07T04:11:48.305Z,0
2022-11-07T04:13:04.595Z,0
2022-11-07T04:14:20.877Z,0
2022-11-07T04:15:37.167Z,0
2022-11-07T04:16:53.460Z,0
2022-11-07T04:18:09.758Z,0
2022-11-07T04:19:26.046Z,0
2022-11-07T04:20:42.357Z,0
2022-11-07T04:21:58.639Z,0
2022-11-07T04:23:14.942Z,0
2022-11-07T04:24:31.225Z,0
2022-11-07T04:25:47.526Z,0
2022-11-07T04:27:02.847Z,0
2022-11-07T04:28:19.126Z,0
2022-11-07T04:29:35.426Z,0
2022-11-07T04:30:51.706Z,0
2022-11-07T04:32:08.013Z,0
2022-11-07T04:33:24.302Z,0
2022-11-07T04:34:39.616Z,0
2022-11-07T04:35:55.915Z,0
2022-11-07T04:37:12.203Z,0
2022-11-07T04:38:28.499Z,0
2022-11-07T04:39:44.784Z,0
2022-11-07T04:41:01.076Z,0
2022-11-07T04:42:17.371Z,0
2022-11-07T04:43:33.671Z,0
2022-11-07T04:44:49.961Z,0
2022-11-07T04:46:06.269Z,0
2022-11-07T04:47:22.553Z,0
2022-11-07T04:48:38.847Z,0
2022-11-07T04:49:55.138Z,0
2022-11-07T04:51:10.450Z,0
2022-11-07T04:52:26.758Z,0
2022-11-07T04:53:43.051Z,0
2022-11-07T04:54:59.328Z,0
2022-11-07T04:56:15.624Z,0
2022-11-07T04:57:31.913Z,0
2022-11-07T04:58:48.208Z,0
2022-11-07T05:00:04.501Z,0
2022-11-07T05:01:20.795Z,0
2022-11-07T05:02:37.097Z,0
2022-11-07T05:03:53.392Z,0
2022-11-07T05:05:09.673Z,0
2022-11-07T05:06:25.971Z,0
2022-11-07T05:07:41.284Z,0
2022-11-07T05:08:57.574Z,0
2022-11-07T05:10:13.877Z,0
2022-11-07T05:11:30.164Z,0
2022-11-07T05:12:46.444Z,0
2022-11-07T05:14:02.760Z,0
2022-11-07T05:15:19.044Z,0
2022-11-07T05:16:35.337Z,0
2022-11-07T05:17:51.635Z,0
2022-11-07T05:19:07.935Z,0
2022-11-07T05:20:24.223Z,0
2022-11-07T05:21:40.505Z,0
2022-11-07T05:22:56.799Z,0
2022-11-07T05:24:12.119Z,0
2022-11-07T05:25:28.415Z,0
2022-11-07T05:26:44.699Z,0
2022-11-07T05:28:00.985Z,0
2022-11-07T05:29:17.285Z,0
2022-11-07T05:30:33.587Z,0
2022-11-07T05:31:49.876Z,0
2022-11-07T05:33:06.168Z,0
2022-11-07T05:34:22.461Z,0
2022-11-07T05:35:38.757Z,0
2022-11-07T05:36:55.054Z,0
2022-11-07T05:38:11.354Z,0
2022-11-07T05:39:27.592Z,0
2022-11-07T05:40:42.845Z,0
2022-11-07T05:41:59.089Z,0
2022-11-07T05:43:15.330Z,0
2022-11-07T05:44:31.576Z,0
2022-11-07T05:45:47.000Z,0
2022-11-07T05:47:04.041Z,0
2022-11-07T05:48:20.296Z,0
2022-11-07T05:49:36.518Z,0
2022-11-07T05:50:52.765Z,0
2022-11-07T05:52:09.005Z,0
2022-11-07T05:53:25.247Z,0
2022-11-07T05:54:41.500Z,0
2022-11-07T05:55:57.726Z,0
2022-11-07T05:57:12.986Z,0
2022-11-07T05:58:29.231Z,0
2022-11-07T05:59:45.465Z,0
2022-11-07T06:01:01.709Z,0
2022-11-07T06:02:17.935Z,0
2022-11-07T06:03:34.187Z,0
2022-11-07T06:04:50.438Z,0
2022-11-07T06:06:06.669Z,0
2022-11-07T06:07:22.901Z,0
2022-11-07T06:08:39.137Z,5
2022-11-07T06:09:55.378Z,5
2022-11-07T06:11:11.625Z,5
2022-11-07T06:12:27.863Z,5
2022-11-07T06:13:43.112Z,5
2022-11-07T06:14:59.345Z,11
2022-11-07T06:16:15.596Z,11
2022-11-07T06:17:31.828Z,11
2022-11-07T06:18:48.073Z,16
2022-11-07T06:20:04.317Z,16
2022-11-07T06:21:20.549Z,16
2022-11-07T06:22:36.789Z,16
2022-11-07T06:23:53.040Z,22
2022-11-07T06:25:09.277Z,22
2022-11-07T06:26:25.503Z,22
2022-11-07T06:27:41.750Z,28
2022-11-07T06:28:57.988Z,28
2022-11-07T06:30:13.252Z,28
2022-11-07T06:31:29.488Z,28
2022-11-07T06:32:45.728Z,28
2022-11-07T06:34:01.957Z,33
2022-11-07T06:35:18.202Z,33
2022-11-07T06:36:34.452Z,39
2022-11-07T06:37:50.684Z,39
2022-11-07T06:39:06.914Z,39
2022-11-07T06:40:23.164Z,45
2022-11-07T06:41:39.390Z,45
2022-11-07T06:42:55.659Z,50
2022-11-07T06:44:11.874Z,50
2022-11-07T06:45:28.133Z,56
2022-11-07T06:46:43.367Z,56
2022-11-07T06:47:59.629Z,61
2022-11-07T06:49:15.852Z,61
2022-11-07T06:50:32.088Z,67
2022-11-07T06:51:48.330Z,67
2022-11-07T06:53:04.573Z,73
2022-11-07T06:54:20.824Z,73
2022-11-07T06:55:37.060Z,73
2022-11-07T06:56:53.304Z,73
2022-11-07T06:58:09.544Z,78
2022-11-07T06:59:25.764Z,78
2022-11-07T07:00:42.017Z,78
2022-11-07T07:01:58.256Z,78
2022-11-07T07:03:13.505Z,73
2022-11-07T07:04:29.745Z,73
2022-11-07T07:05:45.985Z,73
2022-11-07T07:07:02.218Z,73
2022-11-07T07:08:18.473Z,78
2022-11-07T07:09:34.710Z,78
2022-11-07T07:10:50.947Z,78
2022-11-07T07:12:07.183Z,84
2022-11-07T07:13:23.432Z,84
2022-11-07T07:14:39.661Z,84
2022-11-07T07:15:55.901Z,90
2022-11-07T07:17:12.142Z,84
2022-11-07T07:18:28.379Z,90
2022-11-07T07:19:43.640Z,95
2022-11-07T07:20:59.881Z,95
2022-11-07T07:22:16.119Z,101
2022-11-07T07:23:32.364Z,106
2022-11-07T07:24:48.607Z,106
2022-11-07T07:26:04.841Z,106
2022-11-07T07:27:21.000Z,112
2022-11-07T07:28:37.324Z,112
2022-11-07T07:29:53.561Z,112
2022-11-07T07:31:09.791Z,112
2022-11-07T07:32:26.051Z,112
2022-11-07T07:33:42.291Z,112
2022-11-07T07:34:58.528Z,112
2022-11-07T07:36:13.787Z,112
2022-11-07T07:37:30.002Z,112
2022-11-07T07:38:46.259Z,112
2022-11-07T07:40:02.481Z,106
2022-11-07T07:41:18.730Z,106
2022-11-07T07:42:34.968Z,106
2022-11-07T07:43:51.207Z,106
2022-11-07T07:45:07.452Z,106
2022-11-07T07:46:23.687Z,106
2022-11-07T07:47:39.918Z,106
2022-11-07T07:48:56.173Z,106
2022-11-07T07:50:12.408Z,112
2022-11-07T07:51:28.646Z,118
2022-11-07T07:52:43.899Z,118
2022-11-07T07:54:00.144Z,129
2022-11-07T07:55:16.382Z,129
2022-11-07T07:56:32.618Z,135
2022-11-07T07:57:48.864Z,129
2022-11-07T07:59:05.107Z,129
2022-11-07T08:00:21.328Z,129
2022-11-07T08:01:37.583Z,135
2022-11-07T08:02:53.821Z,135
2022-11-07T08:04:10.064Z,140
2022-11-07T08:05:26.302Z,140
2022-11-07T08:06:42.533Z,135
2022-11-07T08:07:58.791Z,135
2022-11-07T08:09:14.033Z,140
2022-11-07T08:10:30.269Z,146
2022-11-07T08:11:46.514Z,146
2022-11-07T08:13:02.760Z,146
2022-11-07T08:14:18.997Z,146
2022-11-07T08:15:35.222Z,146
2022-11-07T08:16:51.473Z,151
2022-11-07T08:18:07.711Z,151
2022-11-07T08:19:23.954Z,151
2022-11-07T08:20:40.181Z,151
2022-11-07T08:21:56.418Z,151
2022-11-07T08:23:12.672Z,151
2022-11-07T08:24:28.912Z,151
2022-11-07T08:25:44.165Z,151
2022-11-07T08:27:00.409Z,151
2022-11-07T08:28:16.631Z,146
2022-11-07T08:29:32.880Z,146
2022-11-07T08:30:49.000Z,151
2022-11-07T08:32:05.368Z,151
2022-11-07T08:33:21.598Z,151
2022-11-07T08:34:37.827Z,151
2022-11-07T08:35:54.074Z,151
2022-11-07T08:37:10.327Z,151
2022-11-07T08:38:26.569Z,151
2022-11-07T08:39:42.804Z,157
2022-11-07T08:40:59.029Z,163
2022-11-07T08:42:14.296Z,168
2022-11-07T08:43:30.526Z,168
2022-11-07T08:44:46.779Z,174
2022-11-07T08:46:03.014Z,168
2022-11-07T08:47:19.000Z,168
2022-11-07T08:48:35.495Z,174
2022-11-07T08:49:51.728Z,168
2022-11-07T08:51:06.990Z,168
2022-11-07T08:52:23.240Z,168
2022-11-07T08:53:39.471Z,168
2022-11-07T08:54:55.716Z,168
2022-11-07T08:56:11.941Z,180
2022-11-07T08:57:28.189Z,180
2022-11-07T08:58:44.444Z,180
2022-11-07T09:00:00.659Z,168
2022-11-07T09:01:16.914Z,168
2022-11-07T09:02:33.152Z,163
2022-11-07T09:03:49.388Z,163
2022-11-07T09:05:05.622Z,168
2022-11-07T09:06:21.868Z,168
2022-11-07T09:07:37.118Z,174
2022-11-07T09:08:53.353Z,174
2022-11-07T09:10:09.599Z,168
2022-11-07T09:11:25.839Z,168
2022-11-07T09:12:42.069Z,168
2022-11-07T09:13:58.322Z,168
2022-11-07T09:15:14.558Z,168
2022-11-07T09:16:30.806Z,180
2022-11-07T09:17:47.041Z,185
2022-11-07T09:19:03.279Z,191
2022-11-07T09:20:19.528Z,191
2022-11-07T09:21:35.760Z,191
2022-11-07T09:22:52.004Z,191
2022-11-07T09:24:07.268Z,191
2022-11-07T09:25:23.494Z,191
2022-11-07T09:26:39.737Z,185
2022-11-07T09:27:55.988Z,191
2022-11-07T09:29:12.209Z,191
2022-11-07T09:30:28.447Z,191
2022-11-07T09:31:44.692Z,191
2022-11-07T09:33:00.933Z,191
2022-11-07T09:34:17.164Z,185
2022-11-07T09:35:33.420Z,185
2022-11-07T09:36:49.651Z,191
2022-11-07T09:38:05.883Z,196
2022-11-07T09:39:22.115Z,202
2022-11-07T09:40:37.382Z,208
2022-11-07T09:41:53.624Z,208
2022-11-07T09:43:09.870Z,208
2022-11-07T09:44:26.088Z,202
2022-11-07T09:45:42.343Z,196
2022-11-07T09:46:58.590Z,196
2022-11-07T09:48:14.819Z,196
2022-11-07T09:49:31.054Z,202
2022-11-07T09:50:47.299Z,208
2022-11-07T09:52:03.530Z,213
2022-11-07T09:53:19.781Z,213
2022-11-07T09:54:36.030Z,213
2022-11-07T09:55:52.256Z,213
2022-11-07T09:57:07.500Z,202
2022-11-07T09:58:23.755Z,202
2022-11-07T09:59:39.984Z,191
2022-11-07T10:00:56.219Z,191
2022-11-07T10:03:28.698Z,180
2022-11-07T10:04:44.956Z,174
2022-11-07T10:06:01.194Z,180
2022-11-07T10:07:17.413Z,174
2022-11-07T10:08:33.680Z,180
2022-11-07T10:09:49.904Z,180
2022-11-07T10:11:06.141Z,185
2022-11-07T10:12:22.384Z,185
2022-11-07T10:13:37.644Z,191
2022-11-07T10:14:53.868Z,191
2022-11-07T10:16:10.121Z,191
2022-11-07T10:17:26.366Z,191
2022-11-07T10:18:42.603Z,191
2022-11-07T10:19:58.823Z,185
2022-11-07T10:21:15.086Z,185
2022-11-07T10:22:31.307Z,185
2022-11-07T10:23:47.560Z,180
2022-11-07T10:25:03.786Z,180
2022-11-07T10:26:20.022Z,185
2022-11-07T10:27:36.264Z,196
2022-11-07T10:28:52.504Z,196
2022-11-07T10:30:07.763Z,191
2022-11-07T10:31:23.994Z,191
2022-11-07T10:32:40.256Z,191
2022-11-07T10:33:56.484Z,191
2022-11-07T10:35:12.718Z,191
2022-11-07T10:36:28.955Z,191
2022-11-07T10:37:45.207Z,191
2022-11-07T10:39:01.430Z,191
2022-11-07T10:40:17.682Z,191
2022-11-07T10:41:33.908Z,196
2022-11-07T10:42:50.155Z,208
2022-11-07T10:44:06.410Z,213
2022-11-07T10:45:22.623Z,208
2022-11-07T10:46:37.904Z,213
2022-11-07T10:47:54.141Z,213
2022-11-07T10:49:10.374Z,208
2022-11-07T10:50:26.617Z,202
2022-11-07T10:51:42.853Z,202
2022-11-07T10:52:59.091Z,202
2022-11-07T10:54:15.326Z,196
2022-11-07T10:55:31.581Z,196
2022-11-07T10:56:47.810Z,196
2022-11-07T10:58:04.037Z,196
2022-11-07T10:59:20.287Z,196
2022-11-07T11:00:36.522Z,196
2022-11-07T11:01:52.750Z,196
2022-11-07T11:03:08.034Z,196
2022-11-07T11:04:24.254Z,196
2022-11-07T11:05:40.494Z,191
2022-11-07T11:06:56.745Z,191
2022-11-07T11:08:12.976Z,185
2022-11-07T11:09:29.216Z,185
2022-11-07T11:10:45.460Z,185
2022-11-07T11:12:01.698Z,185
2022-11-07T11:13:17.925Z,191
2022-11-07T11:14:34.171Z,191
2022-11-07T11:15:50.402Z,191
2022-11-07T11:17:06.657Z,191
2022-11-07T11:18:22.899Z,185
2022-11-07T11:19:38.151Z,185
2022-11-07T11:20:54.397Z,185
2022-11-07T11:22:10.631Z,180
2022-11-07T11:23:26.866Z,180
2022-11-07T11:24:43.109Z,185
2022-11-07T11:25:59.348Z,180
2022-11-07T11:27:15.585Z,180
2022-11-07T11:28:31.833Z,185
2022-11-07T11:29:48.058Z,174
2022-11-07T11:31:04.297Z,174
2022-11-07T11:32:20.531Z,174
2022-11-07T11:33:36.778Z,168
2022-11-07T11:34:53.016Z,163
2022-11-07T11:36:08.277Z,157
2022-11-07T11:37:24.522Z,151
2022-11-07T11:38:40.766Z,151
2022-11-07T11:39:57.011Z,146
2022-11-07T11:41:13.246Z,146
2022-11-07T11:42:29.479Z,140
2022-11-07T11:43:45.720Z,140
2022-11-07T11:45:01.966Z,140
2022-11-07T11:46:18.195Z,140
2022-11-07T11:47:34.443Z,140
2022-11-07T11:48:50.686Z,140
2022-11-07T11:50:06.923Z,140
2022-11-07T11:51:23.147Z,140
2022-11-07T11:52:38.410Z,140
2022-11-07T11:53:54.654Z,140
2022-11-07T11:55:10.888Z,146
2022-11-07T11:56:27.123Z,146
2022-11-07T11:57:43.363Z,146
2022-11-07T11:58:59.621Z,146
2022-11-07T12:00:15.848Z,135
2022-11-07T12:01:32.086Z,129
2022-11-07T12:02:48.329Z,118
2022-11-07T12:04:04.564Z,112
2022-11-07T12:05:20.808Z,101
2022-11-07T12:06:37.028Z,84
2022-11-07T12:07:53.282Z,84
2022-11-07T12:09:08.555Z,84
2022-11-07T12:10:24.764Z,78
2022-11-07T12:11:41.024Z,78
2022-11-07T12:12:57.262Z,78
2022-11-07T12:14:13.500Z,78
2022-11-07T12:15:29.742Z,78
2022-11-07T12:16:45.986Z,78
2022-11-07T12:18:02.207Z,78
2022-11-07T12:19:18.459Z,78
2022-11-07T12:20:34.693Z,78
2022-11-07T12:21:50.932Z,78
2022-11-07T12:23:07.172Z,78
2022-11-07T12:24:23.401Z,73
2022-11-07T12:25:38.680Z,73
2022-11-07T12:26:54.914Z,73
2022-11-07T12:28:11.162Z,67
2022-11-07T12:29:27.374Z,67
2022-11-07T12:30:43.629Z,67
2022-11-07T12:31:59.860Z,67
2022-11-07T12:33:16.093Z,67
2022-11-07T12:34:32.340Z,67
2022-11-07T12:35:48.591Z,67
2022-11-07T12:37:04.819Z,67
2022-11-07T12:38:21.063Z,67
2022-11-07T12:39:37.298Z,61
2022-11-07T12:40:53.547Z,61
2022-11-07T12:42:08.804Z,61
2022-11-07T12:43:25.039Z,61
2022-11-07T12:44:41.267Z,61
2022-11-07T12:45:57.512Z,56
2022-11-07T12:47:13.745Z,56
2022-11-07T12:48:29.995Z,56
2022-11-07T12:49:46.224Z,56
2022-11-07T12:51:02.472Z,61
2022-11-07T12:52:18.704Z,67
2022-11-07T12:53:34.956Z,67
2022-11-07T12:54:51.193Z,67
2022-11-07T12:56:07.424Z,67
2022-11-07T12:57:23.669Z,73
2022-11-07T12:58:38.917Z,73
2022-11-07T12:59:55.163Z,67
2022-11-07T13:01:11.395Z,61
2022-11-07T13:02:27.639Z,56
2022-11-07T13:03:43.880Z,56
2022-11-07T13:05:00.124Z,50
2022-11-07T13:06:15.379Z,50
2022-11-07T13:07:31.625Z,56
2022-11-07T13:08:47.872Z,56
2022-11-07T13:10:04.098Z,61
2022-11-07T13:11:20.353Z,61
2022-11-07T13:12:36.576Z,67
2022-11-07T13:13:52.821Z,67
2022-11-07T13:15:09.056Z,67
2022-11-07T13:16:25.292Z,73
2022-11-07T13:17:41.548Z,73
2022-11-07T13:18:57.781Z,78
2022-11-07T13:20:14.010Z,78
2022-11-07T13:21:30.262Z,73
2022-11-07T13:22:45.506Z,73
2022-11-07T13:24:01.748Z,73
2022-11-07T13:25:17.983Z,73
2022-11-07T13:26:34.230Z,73
2022-11-07T13:27:50.468Z,73
2022-11-07T13:29:06.703Z,67
2022-11-07T13:30:22.954Z,67
2022-11-07T13:31:39.198Z,73
2022-11-07T13:32:55.428Z,73
2022-11-07T13:34:11.669Z,73
2022-11-07T13:35:27.906Z,78
2022-11-07T13:36:44.148Z,73
2022-11-07T13:38:00.384Z,73
2022-11-07T13:39:16.738Z,78
2022-11-07T13:40:32.991Z,78
2022-11-07T13:41:49.230Z,78
2022-11-07T13:43:05.461Z,78
2022-11-07T13:44:21.698Z,78
2022-11-07T13:45:37.939Z,78
2022-11-07T13:46:54.179Z,73
2022-11-07T13:48:10.416Z,73
2022-11-07T13:49:26.652Z,67
2022-11-07T13:50:42.898Z,61
2022-11-07T13:51:59.140Z,61
2022-11-07T13:53:15.375Z,61
2022-11-07T13:54:31.619Z,56
2022-11-07T13:55:46.875Z,50
2022-11-07T13:57:03.120Z,45
2022-11-07T13:58:19.354Z,45
2022-11-07T13:59:35.599Z,39
2022-11-07T14:00:51.839Z,39
2022-11-07T14:02:08.072Z,45
2022-11-07T14:03:24.302Z,45
2022-11-07T14:04:40.542Z,50
2022-11-07T14:05:56.784Z,50
2022-11-07T14:07:13.022Z,50
2022-11-07T14:08:29.261Z,56
2022-11-07T14:09:45.507Z,50
2022-11-07T14:11:01.753Z,50
2022-11-07T14:12:17.013Z,45
2022-11-07T14:13:33.236Z,45
2022-11-07T14:14:49.477Z,45
2022-11-07T14:16:05.724Z,45
2022-11-07T14:17:21.972Z,39
2022-11-07T14:18:38.204Z,33
2022-11-07T14:19:54.433Z,28
2022-11-07T14:21:10.682Z,22
2022-11-07T14:22:26.911Z,22
2022-11-07T14:23:43.152Z,22
2022-11-07T14:24:59.392Z,22
2022-11-07T14:26:15.634Z,22
2022-11-07T14:27:31.867Z,22
2022-11-07T14:28:47.121Z,22
2022-11-07T14:30:03.360Z,22
2022-11-07T14:31:19.606Z,22
2022-11-07T14:32:35.849Z,22
2022-11-07T14:33:52.089Z,28
2022-11-07T14:35:08.329Z,28
2022-11-07T14:36:24.574Z,33
2022-11-07T14:37:40.805Z,33
2022-11-07T14:38:57.053Z,33
2022-11-07T14:40:13.281Z,39
2022-11-07T14:41:29.519Z,39
2022-11-07T14:42:45.757Z,33
2022-11-07T14:44:01.999Z,33
2022-11-07T14:45:17.255Z,28
2022-11-07T14:46:33.493Z,28
2022-11-07T14:47:49.743Z,28
2022-11-07T14:49:05.974Z,22
2022-11-07T14:50:22.213Z,22
2022-11-07T14:51:38.449Z,22
2022-11-07T14:52:54.686Z,22
2022-11-07T14:54:10.932Z,22
2022-11-07T14:55:27.170Z,22
2022-11-07T14:56:43.407Z,16
2022-11-07T14:57:59.644Z,16
2022-11-07T14:59:15.889Z,16
2022-11-07T15:00:32.127Z,16
2022-11-07T15:01:47.379Z,16
2022-11-07T15:03:03.627Z,16
2022-11-07T15:04:19.874Z,16
2022-11-07T15:05:36.100Z,16
2022-11-07T15:06:52.336Z,11
2022-11-07T15:08:08.574Z,11
2022-11-07T15:09:24.821Z,11
2022-11-07T15:10:41.066Z,11
2022-11-07T15:11:57.291Z,11
2022-11-07T15:13:13.534Z,11
2022-11-07T15:14:29.788Z,11
2022-11-07T15:15:46.017Z,11
2022-11-07T15:17:02.259Z,11
2022-11-07T15:18:17.515Z,11
2022-11-07T15:19:33.751Z,11
2022-11-07T15:20:49.987Z,5
2022-11-07T15:22:06.232Z,5
2022-11-07T15:23:22.464Z,5
2022-11-07T15:24:38.719Z,5
2022-11-07T15:25:54.951Z,5
2022-11-07T15:27:11.181Z,5
2022-11-07T15:28:27.434Z,5
2022-11-07T15:29:43.680Z,5
2022-11-07T15:30:59.904Z,5
2022-11-07T15:32:16.147Z,0
2022-11-07T15:33:32.381Z,0
2022-11-07T15:34:47.636Z,0
2022-11-07T15:36:03.884Z,0
2022-11-07T15:37:20.128Z,0
2022-11-07T15:38:36.357Z,0
2022-11-07T15:39:52.597Z,0
2022-11-07T15:41:08.847Z,0
2022-11-07T15:42:25.080Z,0
2022-11-07T15:43:41.319Z,0
2022-11-07T15:44:57.567Z,0
2022-11-07T15:46:13.793Z,0
2022-11-07T15:47:30.032Z,0
2022-11-07T15:48:46.269Z,0
2022-11-07T15:50:02.511Z,0
2022-11-07T15:51:17.772Z,0
2022-11-07T15:52:34.005Z,0
2022-11-07T15:53:50.257Z,0
2022-11-07T15:55:06.495Z,0
2022-11-07T15:56:22.720Z,0
2022-11-07T15:57:38.969Z,0
2022-11-07T15:58:55.203Z,0
2022-11-07T16:00:11.437Z,0
2022-11-07T16:01:27.686Z,0
2022-11-07T16:02:43.921Z,0
2022-11-07T16:04:00.159Z,0
2022-11-07T16:05:16.461Z,0
2022-11-07T16:06:32.764Z,0
2022-11-07T16:07:48.060Z,0
2022-11-07T16:09:04.345Z,0
2022-11-07T16:10:20.640Z,0
2022-11-07T16:11:36.943Z,0
2022-11-07T16:12:53.238Z,0
2022-11-07T16:14:09.527Z,0
2022-11-07T16:15:25.818Z,0
2022-11-07T16:16:42.110Z,0
2022-11-07T16:17:58.409Z,0
2022-11-07T16:19:14.700Z,0
2022-11-07T16:20:30.984Z,0
2022-11-07T16:21:47.286Z,0
2022-11-07T16:23:03.594Z,0
2022-11-07T16:24:18.883Z,0
2022-11-07T16:25:35.180Z,0
2022-11-07T16:26:51.469Z,0
2022-11-07T16:28:07.770Z,0
2022-11-07T16:29:24.063Z,0
2022-11-07T16:30:40.370Z,0
2022-11-07T16:31:56.645Z,0
2022-11-07T16:33:12.940Z,0
2022-11-07T16:34:29.248Z,0
2022-11-07T16:35:45.530Z,0
2022-11-07T16:37:01.827Z,0
2022-11-07T16:38:18.117Z,0
2022-11-07T16:39:34.411Z,0
2022-11-07T16:40:49.726Z,0
2022-11-07T16:42:06.022Z,0
2022-11-07T16:43:22.307Z,0
2022-11-07T16:44:38.595Z,0
2022-11-07T16:45:54.904Z,0
2022-11-07T16:47:11.192Z,0
2022-11-07T16:48:27.477Z,0
2022-11-07T16:49:43.782Z,0
2022-11-07T16:51:00.069Z,0
2022-11-07T16:52:16.371Z,0
2022-11-07T16:53:32.655Z,0
2022-11-07T16:54:48.957Z,0
2022-11-07T16:56:05.248Z,0
2022-11-07T16:57:20.555Z,0
2022-11-07T16:58:36.850Z,0
2022-11-07T16:59:53.135Z,0
2022-11-07T17:01:09.429Z,0
2022-11-07T17:02:25.721Z,0
2022-11-07T17:03:42.014Z,0
2022-11-07T17:04:58.325Z,0
2022-11-07T17:06:14.606Z,0
2022-11-07T17:07:30.907Z,0
2022-11-07T17:08:47.187Z,0
2022-11-07T17:10:03.478Z,0
2022-11-07T17:11:19.770Z,0
2022-11-07T17:12:36.075Z,0
2022-11-07T17:13:51.385Z,0
2022-11-07T17:15:07.678Z,0
2022-11-07T17:16:23.960Z,0
2022-11-07T17:17:40.273Z,0
2022-11-07T17:18:56.551Z,0
2022-11-07T17:20:12.848Z,0
2022-11-07T17:21:28.161Z,0
2022-11-07T17:22:44.463Z,0
2022-11-07T17:24:00.755Z,0
2022-11-07T17:25:17.037Z,0
2022-11-07T17:26:33.340Z,0
2022-11-07T17:27:49.641Z,0
2022-11-07T17:29:05.921Z,0
2022-11-07T17:30:22.222Z,0
2022-11-07T17:31:38.525Z,0
2022-11-07T17:32:54.816Z,0
2022-11-07T17:34:11.094Z,0
2022-11-07T17:35:27.383Z,0
2022-11-07T17:36:43.682Z,0
2022-11-07T17:37:59.004Z,0
2022-11-07T17:39:15.285Z,0
2022-11-07T17:40:31.577Z,0
2022-11-07T17:41:47.869Z,0
2022-11-07T17:43:04.173Z,0
2022-11-07T17:44:20.468Z,0
2022-11-07T17:45:36.749Z,0
2022-11-07T17:46:53.042Z,0
2022-11-07T17:48:09.341Z,0
2022-11-07T17:49:25.640Z,0
2022-11-07T17:50:41.920Z,0
2022-11-07T17:51:58.213Z,0
2022-11-07T17:53:14.514Z,0
2022-11-07T17:54:29.826Z,0
2022-11-07T17:55:46.114Z,0
2022-11-07T17:57:02.407Z,0
2022-11-07T17:58:18.713Z,0
2022-11-07T17:59:34.995Z,0
2022-11-07T18:00:51.285Z,0
2022-11-07T18:02:07.586Z,0
2022-11-07T18:03:23.871Z,0
2022-11-07T18:04:40.161Z,0
2022-11-07T18:05:56.459Z,0
2022-11-07T18:07:12.764Z,0
2022-11-07T18:08:29.045Z,0
2022-11-07T18:09:45.351Z,0
2022-11-07T18:11:00.657Z,0
2022-11-07T18:12:16.951Z,0
2022-11-07T18:13:33.243Z,0
2022-11-07T18:14:49.531Z,0
2022-11-07T18:16:05.822Z,0
2022-11-07T18:17:22.115Z,0
2022-11-07T18:18:38.425Z,0